Time;durP1;ratioP1;P1;durP2;ratioP2;P2;SDS_P1;SDS_P2;PMS_P1;PMS_P2;Temp;Humidity;BMP_temperature;BMP_pressure;BME280_temperature;BME280_humidity;BME280_pressure;Samples;Min_cycle;Max_cycle;Signal;HPM_P1;HPM_P2
2023/08/23 00:01:46;;;;;;;;;4.00;2.75;;;;;27.96;36.12;101493.53;5082680;28;45268;-64
2023/08/23 00:04:11;;;;;;;;;2.75;2.75;;;;;27.94;36.34;101495.47;5082497;28;45320;-64
2023/08/23 00:06:37;;;;;;;;;3.50;3.50;;;;;27.90;36.76;101489.47;5081149;27;45518;-64
2023/08/23 00:09:04;;;;;;;;;4.50;4.50;;;;;27.84;36.12;101482.69;5082112;28;46657;-64
2023/08/23 00:11:30;;;;;;;;;4.75;3.00;;;;;27.82;36.22;101490.03;5082322;28;45243;-64
2023/08/23 00:13:55;;;;;;;;;3.75;3.75;;;;;27.77;36.20;101489.53;5082350;28;45362;-64
2023/08/23 00:16:21;;;;;;;;;2.75;2.75;;;;;27.74;36.73;101481.66;5082062;27;45562;-64
2023/08/23 00:18:46;;;;;;;;;2.25;2.25;;;;;27.69;36.35;101482.00;5082036;28;46197;-63
2023/08/23 00:21:11;;;;;;;;;4.00;3.25;;;;;27.66;36.68;101481.38;5082291;28;45318;-64
2023/08/23 00:23:37;;;;;;;;;3.00;3.00;;;;;27.63;36.90;101473.53;5082200;28;45617;-64
2023/08/23 00:26:03;;;;;;;;;2.50;2.50;;;;;27.62;36.37;101474.50;5082208;27;45461;-64
2023/08/23 00:28:28;;;;;;;;;4.00;2.75;;;;;27.56;36.72;101470.44;5081938;28;46111;-63
2023/08/23 00:30:54;;;;;;;;;3.25;1.50;;;;;27.51;37.11;101459.97;5080531;28;45371;-64
2023/08/23 00:33:20;;;;;;;;;3.25;2.00;;;;;27.49;37.25;101467.31;5082116;28;45260;-64
2023/08/23 00:35:46;;;;;;;;;2.00;2.00;;;;;27.47;36.45;101461.19;5082120;27;45285;-64
2023/08/23 00:38:12;;;;;;;;;3.00;3.00;;;;;27.44;37.27;101464.09;5081810;28;46145;-64
2023/08/23 00:40:37;;;;;;;;;3.25;3.25;;;;;27.40;37.15;101465.31;5082018;27;45238;-64
2023/08/23 00:43:06;;;;;;;;;2.00;2.00;;;;;27.35;37.00;101448.56;5081780;28;45243;-65
2023/08/23 00:45:34;;;;;;;;;2.25;2.25;;;;;27.33;37.21;101453.22;5081906;27;45307;-65
2023/08/23 00:47:59;;;;;;;;;2.00;2.00;;;;;27.29;37.13;101440.94;5081469;28;45338;-64
2023/08/23 00:50:25;;;;;;;;;4.00;4.00;;;;;27.25;36.74;101435.75;5081834;28;45257;-64
2023/08/23 00:52:51;;;;;;;;;4.00;3.00;;;;;27.22;37.48;101427.91;5080593;28;45396;-64
2023/08/23 00:55:16;;;;;;;;;3.75;3.75;;;;;27.21;36.77;101434.25;5081688;27;45247;-64
2023/08/23 00:57:42;;;;;;;;;4.00;2.00;;;;;27.18;37.61;101425.53;5081395;28;45310;-64
2023/08/23 01:00:08;;;;;;;;;2.25;2.25;;;;;27.14;37.46;101432.13;5080139;28;45250;-64
2023/08/23 01:02:35;;;;;;;;;2.00;2.00;;;;;27.11;37.53;101429.66;5081755;28;45220;-64
2023/08/23 01:05:00;;;;;;;;;2.00;2.00;;;;;27.07;37.41;101429.88;5081469;28;45256;-65
2023/08/23 01:07:42;;;;;;;;;5.00;2.00;;;;;27.06;37.53;101427.31;5081231;28;46159;-64
2023/08/23 01:10:08;;;;;;;;;2.75;2.75;;;;;27.01;37.69;101429.50;5081128;28;45219;-64
2023/08/23 01:12:50;;;;;;;;;2.00;2.00;;;;;26.93;37.46;101424.66;5081354;28;45273;-64
2023/08/23 01:15:18;;;;;;;;;2.00;2.00;;;;;26.90;37.54;101427.56;5081344;27;45351;-64
2023/08/23 01:17:47;;;;;;;;;5.00;4.00;;;;;26.86;37.35;101429.63;5081225;28;45354;-64
2023/08/23 01:20:14;;;;;;;;;4.00;3.00;;;;;26.85;37.72;101435.13;5081267;28;45412;-64
2023/08/23 01:22:47;;;;;;;;;6.00;3.00;;;;;26.79;37.68;101433.72;5081475;28;45256;-64
2023/08/23 01:25:14;;;;;;;;;5.00;3.25;;;;;26.77;37.25;101423.06;5080807;27;45277;-64
2023/08/23 01:27:39;;;;;;;;;3.25;3.25;;;;;26.76;37.28;101428.56;5081295;28;45409;-64
2023/08/23 01:30:05;;;;;;;;;7.00;5.25;;;;;26.73;37.73;101418.00;5080804;28;45406;-64
2023/08/23 01:32:56;;;;;;;;;4.00;3.00;;;;;26.71;37.43;101425.31;5081468;28;45265;-64
2023/08/23 01:35:36;;;;;;;;;4.00;4.00;;;;;26.68;37.61;101428.22;5080392;28;45532;-64
2023/08/23 01:38:04;;;;;;;;;3.50;3.50;;;;;26.65;38.03;101432.00;5079561;28;45257;-64
2023/08/23 01:40:30;;;;;;;;;4.75;4.00;;;;;26.63;37.86;101433.06;5080958;28;45224;-64
2023/08/23 01:42:56;;;;;;;;;5.00;2.25;;;;;26.59;37.97;101427.91;5081111;28;45238;-64
2023/08/23 01:45:21;;;;;;;;;2.00;2.00;;;;;26.54;37.95;101421.13;5080710;28;45469;-65
2023/08/23 01:47:47;;;;;;;;;3.00;3.00;;;;;26.53;38.18;101432.88;5080764;28;46405;-64
2023/08/23 01:50:12;;;;;;;;;3.00;2.25;;;;;26.52;38.31;101433.84;5080900;28;45327;-65
2023/08/23 01:52:38;;;;;;;;;2.00;2.00;;;;;26.50;38.17;101436.63;5080908;28;45329;-64
2023/08/23 01:55:03;;;;;;;;;1.25;1.25;;;;;26.48;38.05;101429.63;5080748;28;45262;-65
2023/08/23 01:57:29;;;;;;;;;4.25;4.25;;;;;26.44;37.66;101426.31;5080512;28;46363;-65
2023/08/23 01:59:56;;;;;;;;;2.50;2.50;;;;;26.39;37.84;101421.25;5080785;28;45436;-64
2023/08/23 02:02:21;;;;;;;;;3.00;2.00;;;;;26.41;38.55;101426.53;5080728;28;45458;-64
2023/08/23 02:04:47;;;;;;;;;2.50;2.50;;;;;26.37;38.16;101423.19;5079181;27;45181;-64
2023/08/23 02:07:12;;;;;;;;;1.75;1.75;;;;;26.36;38.56;101417.91;5080548;28;45331;-64
2023/08/23 02:09:37;;;;;;;;;4.75;3.00;;;;;26.34;37.89;101423.41;5080584;28;45279;-64
2023/08/23 02:12:03;;;;;;;;;2.00;2.00;;;;;26.31;38.11;101411.97;5080634;28;45470;-64
2023/08/23 02:14:28;;;;;;;;;2.50;2.00;;;;;26.31;38.02;101411.97;5080448;28;45220;-65
2023/08/23 02:16:53;;;;;;;;;2.00;2.00;;;;;26.27;38.21;101406.78;5080311;28;46886;-65
2023/08/23 02:19:19;;;;;;;;;4.25;2.75;;;;;26.26;38.38;101409.59;5079379;28;53349;-64
2023/08/23 02:21:44;;;;;;;;;3.25;1.25;;;;;26.25;38.60;101411.44;5078834;27;45265;-64
2023/08/23 02:24:09;;;;;;;;;3.75;2.00;;;;;26.22;38.66;101403.56;5080056;28;45485;-65
2023/08/23 02:26:35;;;;;;;;;2.00;2.00;;;;;26.15;38.67;101402.28;5080082;28;45235;-65
2023/08/23 02:29:01;;;;;;;;;2.00;1.00;;;;;26.17;37.99;101410.25;5079960;28;45264;-65
2023/08/23 02:31:27;;;;;;;;;1.75;1.75;;;;;26.13;38.35;101401.53;5080461;28;45348;-65
2023/08/23 02:33:52;;;;;;;;;3.00;3.00;;;;;26.12;38.67;101405.19;5078832;28;45332;-65
2023/08/23 02:36:17;;;;;;;;;4.00;3.00;;;;;26.10;38.88;101401.72;5079603;27;59237;-65
2023/08/23 02:38:42;;;;;;;;;2.00;1.00;;;;;26.07;38.88;101396.56;5080016;28;45321;-65
2023/08/23 02:41:08;;;;;;;;;2.00;2.00;;;;;26.05;38.96;101390.38;5080095;28;45354;-65
2023/08/23 02:43:33;;;;;;;;;3.00;3.00;;;;;26.05;38.33;101401.16;5080094;28;45282;-65
2023/08/23 02:45:59;;;;;;;;;3.00;3.00;;;;;25.97;38.50;101396.31;5079690;27;45929;-65
2023/08/23 02:48:24;;;;;;;;;2.00;2.00;;;;;26.01;38.66;101400.53;5079870;28;45488;-65
2023/08/23 02:50:50;;;;;;;;;3.25;3.00;;;;;25.96;38.36;101408.03;5080044;27;45334;-65
2023/08/23 02:53:15;;;;;;;;;4.00;3.00;;;;;25.96;38.90;101400.84;5079900;28;45406;-65
2023/08/23 02:55:40;;;;;;;;;2.00;2.00;;;;;25.94;39.05;101413.53;5079738;28;45592;-66
2023/08/23 02:58:06;;;;;;;;;2.25;2.25;;;;;25.93;38.91;101401.03;5079739;28;45461;-65
2023/08/23 03:00:31;;;;;;;;;3.00;3.00;;;;;25.91;38.36;101399.41;5079818;28;45257;-65
2023/08/23 03:02:56;;;;;;;;;2.00;2.00;;;;;25.86;38.38;101394.38;5079767;28;45239;-65
2023/08/23 03:05:22;;;;;;;;;4.00;4.00;;;;;25.86;38.43;101390.81;5079669;28;45833;-65
2023/08/23 03:07:47;;;;;;;;;3.00;3.00;;;;;25.82;39.10;101386.59;5078338;28;45255;-65
2023/08/23 03:10:13;;;;;;;;;3.50;3.00;;;;;25.82;38.76;101398.22;5078400;28;45241;-65
2023/08/23 03:12:38;;;;;;;;;2.25;2.25;;;;;25.79;38.60;101403.84;5079563;28;45525;-65
2023/08/23 03:15:04;;;;;;;;;3.00;3.00;;;;;25.72;39.24;101403.41;5079498;27;46263;-65
2023/08/23 03:17:29;;;;;;;;;4.50;2.25;;;;;25.74;39.24;101405.97;5079334;28;45257;-65
2023/08/23 03:19:56;;;;;;;;;3.50;3.50;;;;;25.72;38.86;101405.22;5079782;28;45296;-65
2023/08/23 03:22:22;;;;;;;;;4.50;3.50;;;;;25.70;38.57;101399.06;5079463;28;45486;-65
2023/08/23 03:24:47;;;;;;;;;3.00;2.00;;;;;25.65;38.99;101404.78;5079189;28;46416;-65
2023/08/23 03:27:12;;;;;;;;;4.00;3.50;;;;;25.62;39.35;101405.84;5079191;28;45389;-65
2023/08/23 03:29:38;;;;;;;;;4.00;3.00;;;;;25.60;39.29;101409.59;5079443;28;45303;-65
2023/08/23 03:32:03;;;;;;;;;4.00;3.50;;;;;25.57;39.31;101402.59;5080880;28;50831;-65
2023/08/23 03:34:29;;;;;;;;;4.50;2.00;;;;;25.54;39.35;101397.41;5082999;28;46670;-65
2023/08/23 03:36:54;;;;;;;;;3.50;3.50;;;;;25.54;39.08;101394.72;5081644;27;45416;-65
2023/08/23 03:39:19;;;;;;;;;2.00;2.00;;;;;25.52;38.97;101395.78;5083252;28;45303;-64
2023/08/23 03:41:47;;;;;;;;;3.00;3.00;;;;;25.50;39.59;101397.72;5082684;28;45275;-65
2023/08/23 03:44:12;;;;;;;;;3.50;2.00;;;;;25.47;39.12;101391.59;5082813;28;46415;-65
2023/08/23 03:46:37;;;;;;;;;3.75;2.00;;;;;25.46;39.56;101387.16;5082775;27;45214;-65
2023/08/23 03:49:02;;;;;;;;;2.00;2.00;;;;;25.43;39.57;101381.13;5083107;28;45371;-65
2023/08/23 03:51:28;;;;;;;;;4.50;3.50;;;;;25.42;39.74;101388.34;5081482;28;45565;-65
2023/08/23 03:53:53;;;;;;;;;5.25;4.00;;;;;25.43;39.34;101386.50;5081044;28;58290;-65
2023/08/23 03:56:18;;;;;;;;;4.00;4.00;;;;;25.41;39.38;101386.63;5082465;28;45375;-65
2023/08/23 03:58:44;;;;;;;;;4.50;4.50;;;;;25.39;39.60;101382.31;5081229;28;50467;-65
2023/08/23 04:01:09;;;;;;;;;2.50;2.50;;;;;25.37;39.87;101386.91;5082293;28;45278;-65
2023/08/23 04:03:34;;;;;;;;;3.00;3.00;;;;;25.33;39.81;101393.44;5082504;28;45303;-65
2023/08/23 04:06:01;;;;;;;;;5.00;2.00;;;;;25.27;39.82;101387.50;5082437;27;45310;-65
2023/08/23 04:08:27;;;;;;;;;4.00;3.75;;;;;25.25;40.22;101380.50;5082730;28;45343;-65
2023/08/23 04:10:52;;;;;;;;;5.50;3.50;;;;;25.25;39.98;101388.56;5082037;28;45327;-65
2023/08/23 04:13:17;;;;;;;;;4.50;3.25;;;;;25.25;39.99;101397.50;5082250;28;50888;-65
2023/08/23 04:15:46;;;;;;;;;4.00;3.25;;;;;25.23;39.58;101388.69;5082104;28;45287;-65
2023/08/23 04:18:12;;;;;;;;;3.00;2.00;;;;;25.21;40.17;101406.75;5082474;28;45204;-65
2023/08/23 04:20:38;;;;;;;;;2.75;2.75;;;;;25.19;39.94;101407.81;5082020;28;49411;-65
2023/08/23 04:23:04;;;;;;;;;3.00;2.00;;;;;25.17;39.96;101410.59;5080671;28;46928;-65
2023/08/23 04:25:29;;;;;;;;;3.00;2.00;;;;;25.16;39.82;101403.50;5081980;27;45256;-65
2023/08/23 04:27:55;;;;;;;;;2.75;2.00;;;;;25.14;40.05;101406.28;5081070;28;45533;-65
2023/08/23 04:30:20;;;;;;;;;3.00;3.00;;;;;25.11;39.83;101411.00;5082055;28;45428;-65
2023/08/23 04:32:45;;;;;;;;;5.75;4.75;;;;;25.06;40.09;101397.00;5082109;28;46192;-65
2023/08/23 04:35:11;;;;;;;;;3.00;3.00;;;;;25.07;39.97;101409.44;5081975;27;45237;-65
2023/08/23 04:37:37;;;;;;;;;5.00;4.00;;;;;25.03;39.89;101408.81;5080637;28;45826;-65
2023/08/23 04:40:02;;;;;;;;;5.00;4.00;;;;;25.00;39.91;101403.63;5081837;28;45549;-65
2023/08/23 04:42:34;;;;;;;;;3.00;3.00;;;;;24.98;40.30;101401.03;5081556;27;45323;-65
2023/08/23 04:45:00;;;;;;;;;2.25;2.25;;;;;24.96;40.03;101402.94;5081172;27;45181;-65
2023/08/23 04:47:27;;;;;;;;;3.00;3.00;;;;;24.94;40.54;101404.00;5080738;28;45359;-64
2023/08/23 04:49:52;;;;;;;;;5.00;3.00;;;;;24.91;39.97;101397.00;5081635;28;45573;-65
2023/08/23 04:52:17;;;;;;;;;6.00;3.50;;;;;24.88;40.68;101397.22;5080203;28;47844;-65
2023/08/23 04:54:43;;;;;;;;;5.00;4.00;;;;;24.87;40.35;101398.19;5081651;28;46218;-64
2023/08/23 04:57:08;;;;;;;;;4.25;3.50;;;;;24.88;40.25;101399.03;5081865;27;45375;-64
2023/08/23 04:59:33;;;;;;;;;3.50;3.50;;;;;24.83;40.54;101400.19;5081456;28;45327;-65
2023/08/23 05:01:59;;;;;;;;;3.00;2.50;;;;;24.83;40.30;101405.56;5080367;28;47130;-65
2023/08/23 05:04:24;;;;;;;;;2.50;2.50;;;;;24.82;40.47;101400.31;5080029;28;45328;-65
2023/08/23 05:06:50;;;;;;;;;3.00;3.00;;;;;24.80;40.39;101399.53;5080418;27;45280;-65
2023/08/23 05:09:15;;;;;;;;;3.00;3.00;;;;;24.77;40.18;101397.06;5081342;28;45434;-65
2023/08/23 05:11:40;;;;;;;;;3.00;3.00;;;;;24.78;40.63;101409.50;5081509;28;45993;-65
2023/08/23 05:14:06;;;;;;;;;2.00;2.00;;;;;24.74;40.37;101408.88;5079839;28;45261;-64
2023/08/23 05:16:31;;;;;;;;;4.75;3.75;;;;;24.72;40.48;101404.53;5081842;27;45299;-65
2023/08/23 05:18:57;;;;;;;;;3.00;3.00;;;;;24.74;40.29;101413.34;5079997;28;45496;-65
2023/08/23 05:21:22;;;;;;;;;4.50;3.50;;;;;24.70;40.87;101401.09;5079930;28;48393;-65
2023/08/23 05:23:48;;;;;;;;;3.00;3.00;;;;;24.70;40.88;101407.31;5081259;27;45300;-65
2023/08/23 05:26:13;;;;;;;;;3.50;2.00;;;;;24.70;40.83;101406.47;5079948;28;45346;-65
2023/08/23 05:28:38;;;;;;;;;8.00;4.50;;;;;24.70;40.87;101403.78;5081291;28;45367;-64
2023/08/23 05:31:04;;;;;;;;;7.50;7.50;;;;;24.67;40.79;101397.63;5080923;28;45331;-65
2023/08/23 05:33:29;;;;;;;;;4.00;4.00;;;;;24.68;40.65;101406.56;5081206;28;45376;-65
2023/08/23 05:35:55;;;;;;;;;2.75;2.75;;;;;24.67;40.76;101402.16;5081326;28;45232;-65
2023/08/23 05:38:23;;;;;;;;;4.50;4.25;;;;;24.66;40.88;101413.84;5080982;28;45169;-65
2023/08/23 05:40:48;;;;;;;;;4.00;3.25;;;;;24.66;40.92;101413.84;5081009;28;46097;-65
2023/08/23 05:43:14;;;;;;;;;4.25;3.25;;;;;24.64;40.96;101408.56;5080819;28;45367;-64
2023/08/23 05:45:39;;;;;;;;;3.25;3.25;;;;;24.62;40.96;101413.13;5080951;28;45315;-64
2023/08/23 05:48:05;;;;;;;;;5.25;4.00;;;;;24.59;41.21;101418.72;5079527;28;45830;-65
2023/08/23 05:50:30;;;;;;;;;5.00;4.00;;;;;24.60;41.14;101409.72;5080978;28;46302;-64
2023/08/23 05:52:56;;;;;;;;;3.00;3.00;;;;;24.62;41.05;101431.94;5080790;28;45300;-65
2023/08/23 05:55:21;;;;;;;;;3.00;3.00;;;;;24.61;41.12;101416.78;5080625;27;45444;-65
2023/08/23 05:57:46;;;;;;;;;2.00;2.00;;;;;24.60;41.16;101412.41;5080791;28;45227;-64
2023/08/23 06:00:13;;;;;;;;;3.00;3.00;;;;;24.59;41.45;101402.59;5079299;28;48301;-64
2023/08/23 06:02:39;;;;;;;;;2.25;2.25;;;;;24.60;41.45;101403.44;5080824;28;45409;-65
2023/08/23 06:05:06;;;;;;;;;2.75;2.25;;;;;24.61;41.28;101397.13;5079228;27;45445;-64
2023/08/23 06:07:31;;;;;;;;;2.00;2.00;;;;;24.59;41.25;101389.16;5079509;28;45575;-64
2023/08/23 06:09:57;;;;;;;;;3.25;3.25;;;;;24.57;41.44;101395.59;5078961;28;47510;-64
2023/08/23 06:12:25;;;;;;;;;6.25;3.00;;;;;24.58;41.47;101403.56;5080497;28;45371;-64
2023/08/23 06:14:50;;;;;;;;;4.75;4.75;;;;;24.59;41.17;101415.16;5080454;28;45330;-64
2023/08/23 06:17:16;;;;;;;;;3.00;3.00;;;;;24.58;41.62;101410.72;5080483;28;45380;-64
2023/08/23 06:19:42;;;;;;;;;6.00;4.25;;;;;24.59;41.68;101413.34;5078851;28;48020;-65
2023/08/23 06:22:07;;;;;;;;;3.00;3.00;;;;;24.60;41.72;101408.81;5080277;28;45264;-65
2023/08/23 06:24:33;;;;;;;;;3.00;3.00;;;;;24.59;41.15;101401.72;5080262;28;45185;-65
2023/08/23 06:26:58;;;;;;;;;4.00;2.25;;;;;24.60;41.84;101390.03;5080045;27;45352;-64
2023/08/23 06:29:23;;;;;;;;;3.75;2.25;;;;;24.59;41.40;101389.16;5080104;28;46093;-64
2023/08/23 06:31:49;;;;;;;;;6.00;3.25;;;;;24.60;41.53;101396.28;5080215;28;45186;-64
2023/08/23 06:34:14;;;;;;;;;3.00;3.00;;;;;24.61;41.75;101400.66;5080454;28;45307;-64
2023/08/23 06:36:39;;;;;;;;;5.50;5.25;;;;;24.62;41.41;101397.03;5080182;27;45637;-65
2023/08/23 06:39:05;;;;;;;;;2.25;2.25;;;;;24.61;41.68;101397.97;5080250;28;46830;-65
2023/08/23 06:41:30;;;;;;;;;4.50;4.50;;;;;24.63;41.59;101404.13;5079929;28;45236;-65
2023/08/23 06:44:00;;;;;;;;;3.25;3.25;;;;;24.65;41.35;101410.31;5080428;28;45457;-64
2023/08/23 06:46:26;;;;;;;;;4.50;4.00;;;;;24.65;41.87;101406.75;5078772;28;45581;-65
2023/08/23 06:48:52;;;;;;;;;3.50;3.50;;;;;24.65;41.69;101399.56;5080046;28;45366;-65
2023/08/23 06:51:17;;;;;;;;;3.25;3.25;;;;;24.64;41.64;101400.50;5079947;28;45314;-65
2023/08/23 06:53:42;;;;;;;;;3.25;3.00;;;;;24.66;41.86;101403.94;5080230;28;45476;-65
2023/08/23 06:56:08;;;;;;;;;3.50;2.75;;;;;24.69;41.76;101400.22;5079859;28;45492;-64
2023/08/23 06:58:33;;;;;;;;;4.00;3.00;;;;;24.72;41.72;101416.16;5079884;28;45989;-64
2023/08/23 07:00:59;;;;;;;;;4.25;4.25;;;;;24.69;42.06;101412.78;5078506;28;45460;-64
2023/08/23 07:03:24;;;;;;;;;2.25;2.25;;;;;24.72;42.15;101420.66;5080057;28;45287;-65
2023/08/23 07:05:49;;;;;;;;;4.75;4.00;;;;;24.72;41.90;101420.66;5079777;28;45512;-64
2023/08/23 07:08:15;;;;;;;;;5.00;4.00;;;;;24.75;41.91;101423.16;5083349;28;45311;-64
2023/08/23 07:10:40;;;;;;;;;3.75;3.25;;;;;24.77;42.01;101422.09;5083315;28;45356;-65
2023/08/23 07:13:05;;;;;;;;;3.50;3.00;;;;;24.80;42.07;101429.09;5083577;28;45184;-65
2023/08/23 07:15:31;;;;;;;;;3.50;3.50;;;;;24.81;42.06;101428.97;5083011;27;45536;-65
2023/08/23 07:17:56;;;;;;;;;2.75;2.00;;;;;24.86;41.83;101431.38;5082111;28;47132;-65
2023/08/23 07:20:22;;;;;;;;;3.50;3.00;;;;;24.89;42.37;101438.41;5083099;28;48497;-65
2023/08/23 07:22:48;;;;;;;;;2.25;2.00;;;;;24.91;42.46;101436.47;5083560;28;45429;-65
2023/08/23 07:25:13;;;;;;;;;2.75;2.75;;;;;24.96;42.43;101432.53;5081320;27;45345;-65
2023/08/23 07:27:38;;;;;;;;;3.00;3.00;;;;;24.99;42.29;101434.16;5083261;28;45433;-65
2023/08/23 07:30:05;;;;;;;;;4.25;2.25;;;;;25.03;42.23;101426.75;5081245;28;45472;-65
2023/08/23 07:32:32;;;;;;;;;4.00;4.00;;;;;25.08;42.05;101427.31;5083410;28;45330;-64
2023/08/23 07:35:00;;;;;;;;;7.00;5.00;;;;;25.11;42.41;101429.81;5082730;27;45274;-65
2023/08/23 07:37:26;;;;;;;;;4.00;3.00;;;;;25.15;42.34;101436.72;5083043;28;45371;-65
2023/08/23 07:39:51;;;;;;;;;4.00;4.00;;;;;25.18;42.79;101433.81;5082500;28;45332;-65
2023/08/23 07:42:16;;;;;;;;;3.00;3.00;;;;;25.19;42.04;101434.69;5083223;28;45343;-65
2023/08/23 07:44:41;;;;;;;;;2.00;2.00;;;;;25.24;42.47;101432.56;5082513;28;45325;-65
2023/08/23 07:47:07;;;;;;;;;5.50;4.00;;;;;25.27;42.21;101441.28;5082948;27;45393;-65
2023/08/23 07:49:32;;;;;;;;;2.25;2.25;;;;;25.34;42.60;101440.91;5082784;28;45345;-65
2023/08/23 07:51:57;;;;;;;;;2.25;2.25;;;;;25.36;42.21;101430.88;5081629;28;45224;-65
2023/08/23 07:54:23;;;;;;;;;3.00;3.00;;;;;25.42;42.49;101439.47;5082657;28;45308;-65
2023/08/23 07:56:48;;;;;;;;;3.75;3.50;;;;;25.46;42.20;101438.28;5082641;27;45600;-65
2023/08/23 07:59:13;;;;;;;;;2.75;1.25;;;;;25.51;42.24;101439.78;5080849;28;45612;-64
2023/08/23 08:01:39;;;;;;;;;2.50;2.50;;;;;25.53;42.72;101443.25;5083103;28;45485;-65
2023/08/23 08:04:04;;;;;;;;;4.25;3.25;;;;;25.59;42.12;101451.78;5082210;28;49620;-65
2023/08/23 08:06:29;;;;;;;;;4.25;4.00;;;;;25.63;42.21;101444.38;5081306;27;47349;-64
2023/08/23 08:08:55;;;;;;;;;3.50;3.50;;;;;25.70;42.00;101455.56;5082308;28;46259;-64
2023/08/23 08:11:21;;;;;;;;;5.50;4.75;;;;;25.71;42.50;101447.41;5082272;28;51095;-65
2023/08/23 08:13:46;;;;;;;;;4.75;4.25;;;;;25.75;42.81;101446.22;5082328;28;45241;-64
2023/08/23 08:16:13;;;;;;;;;5.75;3.00;;;;;25.82;41.99;101440.44;5082208;27;46121;-65
2023/08/23 08:18:39;;;;;;;;;5.00;4.00;;;;;25.84;42.60;101442.06;5082020;27;45314;-65
2023/08/23 08:21:04;;;;;;;;;5.75;4.75;;;;;25.90;42.30;101440.75;5082708;28;45251;-64
2023/08/23 08:23:30;;;;;;;;;3.75;3.00;;;;;25.95;41.98;101439.50;5082153;28;45305;-64
2023/08/23 08:25:56;;;;;;;;;4.75;3.75;;;;;25.98;42.53;101433.03;5080845;27;46854;-64
2023/08/23 08:28:21;;;;;;;;;3.50;2.75;;;;;26.01;42.13;101437.34;5063987;28;45652;-64
2023/08/23 08:30:48;;;;;;;;;7.00;4.00;;;;;26.06;42.52;101437.91;5082196;28;45381;-64
2023/08/23 08:33:13;;;;;;;;;5.00;5.00;;;;;26.11;42.26;101444.72;5082034;28;45547;-65
2023/08/23 08:35:39;;;;;;;;;9.75;6.00;;;;;26.17;41.98;101443.44;5080574;27;47106;-64
2023/08/23 08:38:05;;;;;;;;;5.00;4.25;;;;;26.21;42.69;101444.97;5080581;28;45339;-64
2023/08/23 08:40:31;;;;;;;;;4.50;3.25;;;;;26.25;42.29;101441.06;5082124;28;45259;-64
2023/08/23 08:42:57;;;;;;;;;4.00;4.00;;;;;26.31;42.63;101434.38;5081874;28;46357;-64
2023/08/23 08:45:22;;;;;;;;;3.75;3.75;;;;;26.34;42.68;101439.56;5080127;27;47341;-64
2023/08/23 08:47:48;;;;;;;;;4.25;4.25;;;;;26.36;42.13;101440.31;5080535;28;45243;-64
2023/08/23 08:50:13;;;;;;;;;7.00;7.00;;;;;26.39;42.23;101436.53;5080699;28;45284;-64
2023/08/23 08:52:48;;;;;;;;;6.25;6.00;;;;;26.49;42.00;101447.53;5081717;28;45496;-64
2023/08/23 08:55:15;;;;;;;;;5.75;5.75;;;;;26.53;42.34;101444.53;5080277;27;46089;-64
2023/08/23 08:57:42;;;;;;;;;4.75;3.00;;;;;26.56;42.17;101433.50;5081636;28;45272;-64
2023/08/23 09:00:09;;;;;;;;;5.00;3.75;;;;;26.64;42.08;101449.16;5081545;28;45499;-64
2023/08/23 09:02:36;;;;;;;;;5.00;5.00;;;;;26.67;42.50;101454.31;5081471;28;45280;-64
2023/08/23 09:05:02;;;;;;;;;4.25;4.00;;;;;26.74;42.73;101455.63;5081465;27;45388;-64
2023/08/23 09:07:31;;;;;;;;;4.25;4.25;;;;;26.79;42.28;101457.13;5081425;28;45217;-64
2023/08/23 09:09:57;;;;;;;;;6.50;4.00;;;;;26.85;42.42;101460.25;5081443;28;45452;-64
2023/08/23 09:12:23;;;;;;;;;5.00;4.25;;;;;26.90;42.28;101459.91;5079989;28;45294;-64
2023/08/23 09:14:49;;;;;;;;;5.50;4.00;;;;;26.96;42.48;101467.56;5081305;28;45427;-64
2023/08/23 09:17:15;;;;;;;;;5.00;5.00;;;;;27.01;42.66;101465.41;5081325;28;45334;-64
2023/08/23 09:19:40;;;;;;;;;3.50;3.25;;;;;27.08;42.26;101449.63;5081452;28;45580;-64
2023/08/23 09:22:06;;;;;;;;;6.75;4.00;;;;;27.15;42.85;101459.00;5081432;28;45263;-64
2023/08/23 09:24:31;;;;;;;;;5.75;5.75;;;;;27.22;42.78;101456.69;5081217;28;45918;-64
2023/08/23 09:26:57;;;;;;;;;5.25;5.00;;;;;27.30;42.25;101465.09;5081040;27;45361;-64
2023/08/23 09:29:25;;;;;;;;;4.75;3.50;;;;;27.39;42.15;101452.75;5080804;28;45228;-64
2023/08/23 09:31:51;;;;;;;;;4.50;4.00;;;;;27.46;42.50;101443.28;5081142;28;45488;-64
2023/08/23 09:34:16;;;;;;;;;5.00;5.00;;;;;27.54;42.42;101445.38;5081217;28;45372;-64
2023/08/23 09:36:42;;;;;;;;;5.25;5.00;;;;;27.65;42.53;101444.59;5081152;27;45413;-64
2023/08/23 09:39:11;;;;;;;;;5.75;5.75;;;;;27.78;41.98;101456.16;5079799;28;45400;-64
2023/08/23 09:41:39;;;;;;;;;8.25;5.25;;;;;27.89;42.42;101450.78;5080970;28;45568;-64
2023/08/23 09:44:05;;;;;;;;;3.00;2.75;;;;;28.00;41.97;101452.69;5080596;27;45334;-64
2023/08/23 09:46:33;;;;;;;;;6.75;4.25;;;;;28.12;41.85;101460.84;5080777;28;45178;-64
2023/08/23 09:49:05;;;;;;;;;7.25;6.25;;;;;28.25;42.38;101458.03;5081377;28;45377;-64
2023/08/23 09:51:34;;;;;;;;;6.00;6.00;;;;;28.40;42.27;101459.53;5079434;28;45251;-65
2023/08/23 09:54:23;;;;;;;;;6.25;5.00;;;;;28.53;42.11;101454.03;5080413;28;45421;-64
2023/08/23 09:56:50;;;;;;;;;2.50;2.50;;;;;28.75;42.13;101457.75;5078627;27;45471;-64
2023/08/23 09:59:17;;;;;;;;;6.25;5.75;;;;;28.95;41.83;101446.16;5080340;28;45521;-64
2023/08/23 10:01:44;;;;;;;;;6.75;5.50;;;;;29.18;42.04;101449.72;5080697;28;45455;-64
2023/08/23 10:04:09;;;;;;;;;8.00;6.00;;;;;29.43;42.26;101441.44;5079025;28;46927;-64
2023/08/23 10:06:36;;;;;;;;;6.25;4.00;;;;;29.68;42.04;101434.78;5080596;27;45314;-64
2023/08/23 10:09:03;;;;;;;;;4.75;4.75;;;;;29.95;42.16;101441.56;5079220;28;45317;-64
2023/08/23 10:11:30;;;;;;;;;7.00;4.25;;;;;30.24;41.76;101441.78;5079230;28;45469;-64
2023/08/23 10:13:58;;;;;;;;;5.75;4.75;;;;;30.52;42.20;101433.13;5080053;28;45257;-64
2023/08/23 10:16:26;;;;;;;;;5.75;5.50;;;;;30.80;42.07;101429.66;5080414;28;45322;-64
2023/08/23 10:18:53;;;;;;;;;4.75;4.75;;;;;31.11;41.63;101424.19;5079041;28;45221;-64
2023/08/23 10:21:18;;;;;;;;;5.00;5.00;;;;;31.43;41.52;101428.53;5080467;28;45231;-64
2023/08/23 10:23:44;;;;;;;;;5.75;5.25;;;;;31.77;41.03;101424.50;5078811;28;48036;-64
2023/08/23 10:26:18;;;;;;;;;3.25;3.25;;;;;32.08;40.74;101418.91;5080320;27;45290;-64
2023/08/23 10:28:52;;;;;;;;;3.50;2.75;;;;;32.42;41.14;101419.22;5078902;28;45385;-64
2023/08/23 10:31:27;;;;;;;;;1.00;1.00;;;;;32.80;40.80;101416.50;5080248;28;45558;-64
2023/08/23 10:33:57;;;;;;;;;3.25;3.25;;;;;33.14;40.63;101417.75;5078785;28;46009;-64
2023/08/23 10:36:25;;;;;;;;;6.25;4.75;;;;;33.45;39.86;101404.63;5080065;27;45479;-64
2023/08/23 10:38:51;;;;;;;;;4.75;3.75;;;;;33.78;39.64;101401.34;5080190;28;45313;-64
2023/08/23 10:41:17;;;;;;;;;4.50;3.50;;;;;34.11;39.64;101401.59;5078917;28;45326;-64
2023/08/23 10:43:45;;;;;;;;;3.50;2.50;;;;;34.41;39.42;101402.97;5079823;28;45254;-64
2023/08/23 10:46:10;;;;;;;;;5.25;4.75;;;;;34.70;39.18;101401.72;5080161;27;45222;-64
2023/08/23 10:48:35;;;;;;;;;4.00;4.00;;;;;35.00;38.88;101407.66;5080216;28;45279;-64
2023/08/23 10:51:01;;;;;;;;;3.00;3.00;;;;;35.26;38.42;101403.94;5080261;28;45248;-64
2023/08/23 10:53:26;;;;;;;;;5.25;4.25;;;;;35.54;38.17;101409.13;5079934;28;46122;-64
2023/08/23 10:55:52;;;;;;;;;4.50;4.50;;;;;35.75;38.31;101401.25;5079806;28;45397;-64
2023/08/23 10:58:17;;;;;;;;;4.25;3.00;;;;;35.95;37.55;101409.09;5079999;28;45370;-64
2023/08/23 11:00:45;;;;;;;;;6.00;6.00;;;;;36.10;37.24;101412.84;5078402;28;45323;-64
2023/08/23 11:03:12;;;;;;;;;5.25;3.25;;;;;36.25;37.27;101412.09;5079614;28;45503;-64
2023/08/23 11:05:38;;;;;;;;;6.75;5.00;;;;;36.35;36.78;101409.16;5079629;27;45275;-64
2023/08/23 11:08:04;;;;;;;;;4.75;4.75;;;;;36.46;37.06;101411.56;5078618;28;45379;-64
2023/08/23 11:10:30;;;;;;;;;4.25;4.25;;;;;36.55;36.40;101420.59;5079495;28;45477;-64
2023/08/23 11:12:55;;;;;;;;;4.75;3.75;;;;;36.63;36.16;101417.84;5079613;28;46056;-64
2023/08/23 11:15:21;;;;;;;;;5.50;4.50;;;;;36.72;35.90;101411.28;5077985;27;45218;-64
2023/08/23 11:17:47;;;;;;;;;6.50;4.00;;;;;36.80;36.17;101404.91;5079890;28;45371;-64
2023/08/23 11:20:13;;;;;;;;;7.00;4.25;;;;;36.88;35.78;101404.03;5079581;28;45317;-64